Time;durP1;ratioP1;P1;durP2;ratioP2;P2;SDS_P1;SDS_P2;PMS_P1;PMS_P2;Temp;Humidity;BMP_temperature;BMP_pressure;BME280_temperature;BME280_humidity;BME280_pressure;Samples;Min_cycle;Max_cycle;Signal;HPM_P1;HPM_P2
2021/04/26 00:00:25;;;;;;;2.50;2.30;;;8.90;99.90;;;;;;5121516;28;20664;-83
2021/04/26 00:02:52;;;;;;;3.33;3.00;;;9.00;99.90;;;;;;5088044;28;20158;-83
2021/04/26 00:05:18;;;;;;;3.50;2.87;;;9.00;99.90;;;;;;5132850;28;20459;-83
2021/04/26 00:07:44;;;;;;;14.00;3.00;;;9.00;99.90;;;;;;5138245;28;20435;-83
2021/04/26 00:10:11;;;;;;;5.07;3.00;;;8.80;99.90;;;;;;5138219;28;20435;-83
2021/04/26 00:12:38;;;;;;;4.83;3.47;;;8.70;99.90;;;;;;5121380;28;20395;-83
2021/04/26 00:15:07;;;;;;;12.83;3.60;;;8.70;99.90;;;;;;5138949;28;20475;-83
2021/04/26 00:17:33;;;;;;;2.93;2.70;;;8.60;99.90;;;;;;5139010;28;20456;-83
2021/04/26 00:19:59;;;;;;;4.27;3.37;;;8.70;99.90;;;;;;5139235;28;20404;-83
2021/04/26 00:22:24;;;;;;;6.90;2.60;;;8.80;99.90;;;;;;5139151;28;20461;-83
2021/04/26 00:24:50;;;;;;;4.70;3.83;;;8.70;99.90;;;;;;5121514;28;20177;-83
2021/04/26 00:27:16;;;;;;;4.07;3.67;;;8.50;99.90;;;;;;5136900;28;20160;-83
2021/04/26 00:29:42;;;;;;;5.80;3.80;;;8.70;99.90;;;;;;5139145;28;20208;-83
2021/04/26 00:32:07;;;;;;;6.80;4.57;;;8.40;99.90;;;;;;5121053;28;20186;-83
2021/04/26 00:34:33;;;;;;;5.10;3.07;;;8.20;99.90;;;;;;5138882;28;20316;-84
2021/04/26 00:36:59;;;;;;;3.27;2.97;;;8.40;99.90;;;;;;5130173;28;20209;-83
2021/04/26 00:39:25;;;;;;;3.77;3.20;;;8.70;99.90;;;;;;5117349;28;20165;-82
2021/04/26 00:41:51;;;;;;;3.30;3.00;;;8.80;99.90;;;;;;5121196;28;20213;-83
2021/04/26 00:44:16;;;;;;;3.47;3.17;;;8.40;99.90;;;;;;5120703;28;20154;-83
2021/04/26 00:46:42;;;;;;;3.77;3.43;;;8.30;99.90;;;;;;5135964;28;20226;-81
2021/04/26 00:49:11;;;;;;;3.00;2.73;;;8.50;99.90;;;;;;5135225;28;20187;-84
2021/04/26 00:51:36;;;;;;;4.73;4.17;;;8.60;99.90;;;;;;5117090;28;20157;-83
2021/04/26 00:54:03;;;;;;;4.63;3.43;;;8.80;99.90;;;;;;5135763;28;20479;-80
2021/04/26 00:56:28;;;;;;;4.27;3.60;;;8.80;99.90;;;;;;5134483;28;20225;-82
2021/04/26 00:58:55;;;;;;;6.00;2.93;;;8.90;99.90;;;;;;5120499;28;20396;-82
2021/04/26 01:01:21;;;;;;;3.43;3.13;;;8.90;99.90;;;;;;5120844;28;20162;-82
2021/04/26 01:03:47;;;;;;;3.90;3.60;;;8.90;99.90;;;;;;5121018;28;20464;-83
2021/04/26 01:06:13;;;;;;;3.53;3.00;;;8.80;99.90;;;;;;5120969;28;20852;-82
2021/04/26 01:08:39;;;;;;;2.97;2.77;;;8.80;99.90;;;;;;5120803;28;20221;-84
2021/04/26 01:11:06;;;;;;;3.23;2.50;;;8.80;99.90;;;;;;5102464;28;20162;-82
2021/04/26 01:13:43;;;;;;;3.30;3.00;;;8.80;99.90;;;;;;5120556;28;20392;-83
2021/04/26 01:16:25;;;;;;;2.67;2.47;;;8.70;99.90;;;;;;5120492;28;20751;-82
2021/04/26 01:19:04;;;;;;;8.07;3.27;;;8.60;99.90;;;;;;5102690;28;20404;-82
2021/04/26 01:22:02;;;;;;;3.67;2.63;;;8.60;99.90;;;;;;5120670;28;20749;-84
2021/04/26 01:24:52;;;;;;;6.07;2.83;;;8.40;99.90;;;;;;5130083;28;20367;-84
2021/04/26 01:27:27;;;;;;;7.83;2.90;;;8.50;99.90;;;;;;5106793;28;20403;-83
2021/04/26 01:30:13;;;;;;;6.60;3.97;;;8.50;99.90;;;;;;5120491;28;20400;-83
2021/04/26 01:32:43;;;;;;;3.20;2.90;;;8.40;99.90;;;;;;5119697;28;20392;-83
2021/04/26 01:35:13;;;;;;;9.30;4.20;;;8.40;99.90;;;;;;5101506;28;20845;-82
2021/04/26 01:37:40;;;;;;;3.80;3.33;;;8.30;99.90;;;;;;5119332;28;20443;-82
2021/04/26 01:40:10;;;;;;;5.57;3.63;;;8.20;99.90;;;;;;5120065;28;20396;-82
2021/04/26 01:42:38;;;;;;;3.27;2.90;;;8.20;99.90;;;;;;5119046;28;20944;-83
2021/04/26 01:45:09;;;;;;;3.80;3.50;;;8.10;99.90;;;;;;5119312;28;20421;-82
2021/04/26 01:47:37;;;;;;;3.60;2.50;;;8.10;99.90;;;;;;5121809;28;20392;-83
2021/04/26 01:50:06;;;;;;;4.17;3.73;;;8.00;99.90;;;;;;5123250;28;20406;-83
2021/04/26 01:52:33;;;;;;;3.63;3.30;;;7.90;99.90;;;;;;5123686;28;20418;-82
2021/04/26 01:55:01;;;;;;;5.10;3.40;;;7.90;99.90;;;;;;5122746;28;20759;-83
2021/04/26 01:57:30;;;;;;;7.67;4.40;;;7.90;99.90;;;;;;5088091;28;20440;-83
2021/04/26 01:59:57;;;;;;;4.67;3.90;;;7.70;99.90;;;;;;5124267;28;20464;-83
2021/04/26 02:02:23;;;;;;;4.93;3.47;;;7.60;99.90;;;;;;5124136;28;20399;-83
2021/04/26 02:04:50;;;;;;;3.50;3.20;;;7.60;99.90;;;;;;5124640;28;20388;-83
2021/04/26 02:07:16;;;;;;;15.70;4.10;;;7.50;99.90;;;;;;5106515;28;20773;-84
2021/04/26 02:09:42;;;;;;;3.53;3.20;;;7.40;99.90;;;;;;5125628;28;20415;-84
2021/04/26 02:12:11;;;;;;;3.20;2.90;;;7.30;99.90;;;;;;5108290;28;20170;-82
2021/04/26 02:14:40;;;;;;;5.40;3.43;;;7.30;99.90;;;;;;5110806;28;20399;-83
2021/04/26 02:17:06;;;;;;;2.83;2.53;;;7.30;99.90;;;;;;5111186;28;20465;-84
2021/04/26 02:19:32;;;;;;;3.83;3.13;;;7.20;99.90;;;;;;5112085;28;20399;-84
2021/04/26 02:21:59;;;;;;;4.73;2.70;;;7.10;99.90;;;;;;5116406;28;20463;-83
2021/04/26 02:24:25;;;;;;;6.07;4.10;;;7.00;99.90;;;;;;5123346;28;20441;-83
2021/04/26 02:26:51;;;;;;;3.47;3.17;;;7.10;99.90;;;;;;5141201;28;20435;-83
2021/04/26 02:29:16;;;;;;;4.13;3.67;;;7.10;99.90;;;;;;5140369;28;20197;-83
2021/04/26 02:31:49;;;;;;;4.83;3.33;;;6.90;99.90;;;;;;5121912;28;20185;-83
2021/04/26 02:34:26;;;;;;;3.40;2.73;;;6.90;99.90;;;;;;5132783;28;20162;-83
2021/04/26 02:36:58;;;;;;;6.10;2.80;;;6.90;99.90;;;;;;5125663;28;20613;-82
2021/04/26 02:39:27;;;;;;;6.07;3.40;;;6.90;99.90;;;;;;5111667;28;20393;-84
2021/04/26 02:41:53;;;;;;;9.73;4.00;;;7.00;99.90;;;;;;5125576;28;20478;-84
2021/04/26 02:44:24;;;;;;;7.37;2.90;;;6.90;99.90;;;;;;5122499;28;20403;-83
2021/04/26 02:46:53;;;;;;;3.60;3.30;;;6.90;99.90;;;;;;5104619;28;20396;-84
2021/04/26 02:49:20;;;;;;;4.47;3.60;;;6.80;99.90;;;;;;5123216;28;20407;-82
2021/04/26 02:51:46;;;;;;;3.57;3.27;;;6.70;99.90;;;;;;5123057;28;20414;-83
2021/04/26 02:54:13;;;;;;;6.93;3.93;;;6.70;99.90;;;;;;5122548;28;20491;-83
2021/04/26 02:56:41;;;;;;;6.53;3.30;;;6.70;99.90;;;;;;5123821;28;20496;-83
2021/04/26 02:59:09;;;;;;;10.07;4.10;;;6.60;99.90;;;;;;5121874;28;20397;-83
2021/04/26 03:01:36;;;;;;;4.13;3.43;;;6.50;99.90;;;;;;5070453;28;20880;-83
2021/04/26 03:04:04;;;;;;;5.10;3.50;;;6.40;99.90;;;;;;5086726;28;20392;-83
2021/04/26 03:06:31;;;;;;;3.37;3.03;;;6.30;99.90;;;;;;5103122;28;20859;-83
2021/04/26 03:08:58;;;;;;;4.13;3.30;;;6.30;99.90;;;;;;5121363;28;20431;-83
2021/04/26 03:11:25;;;;;;;5.50;2.80;;;6.20;99.90;;;;;;5121279;28;20397;-83
2021/04/26 03:13:51;;;;;;;4.10;3.37;;;6.20;99.90;;;;;;5102479;28;20411;-83
2021/04/26 03:16:17;;;;;;;7.97;4.10;;;6.20;99.90;;;;;;5102423;28;20440;-83
2021/04/26 03:18:47;;;;;;;7.47;4.20;;;6.20;99.90;;;;;;5102457;28;20388;-82
2021/04/26 03:21:13;;;;;;;5.63;3.93;;;6.20;99.90;;;;;;5121099;28;20845;-83
2021/04/26 03:23:41;;;;;;;4.53;3.33;;;6.30;99.90;;;;;;5102425;28;20400;-83
2021/04/26 03:26:08;;;;;;;6.63;3.83;;;6.30;99.90;;;;;;5102212;28;20396;-83
2021/04/26 03:28:37;;;;;;;6.83;4.10;;;6.20;99.90;;;;;;5120174;28;20461;-83
2021/04/26 03:31:04;;;;;;;5.60;3.50;;;6.30;99.90;;;;;;5103633;28;20396;-83
2021/04/26 03:33:32;;;;;;;3.83;3.43;;;6.20;99.90;;;;;;5120457;28;20384;-83
2021/04/26 03:35:59;;;;;;;5.23;3.73;;;6.10;99.90;;;;;;5120972;28;20423;-83
2021/04/26 03:38:26;;;;;;;6.20;3.10;;;6.10;99.90;;;;;;5120309;28;20733;-83
2021/04/26 03:40:54;;;;;;;5.20;3.53;;;6.20;99.90;;;;;;5120138;28;20455;-83
2021/04/26 03:43:20;;;;;;;3.90;3.50;;;6.20;99.90;;;;;;5120942;28;20399;-83
2021/04/26 03:45:47;;;;;;;3.50;2.20;;;6.20;99.90;;;;;;5068267;28;20957;-83
2021/04/26 03:48:13;;;;;;;5.83;3.63;;;6.20;99.90;;;;;;5122648;28;20435;-83
2021/04/26 03:50:39;;;;;;;6.40;3.70;;;6.10;99.90;;;;;;5098238;28;20412;-83
2021/04/26 03:53:05;;;;;;;7.17;4.23;;;6.00;99.90;;;;;;5132470;28;20177;-83
2021/04/26 03:55:31;;;;;;;3.53;2.93;;;6.00;99.90;;;;;;5135147;28;20218;-83
2021/04/26 03:57:57;;;;;;;4.47;3.20;;;6.00;99.90;;;;;;5120496;28;20411;-83
2021/04/26 04:00:24;;;;;;;5.40;3.03;;;5.90;99.90;;;;;;5120491;28;20434;-83
2021/04/26 04:02:51;;;;;;;3.70;3.40;;;6.00;99.90;;;;;;5120025;28;20170;-82
2021/04/26 04:05:17;;;;;;;4.30;3.70;;;5.80;99.90;;;;;;5083745;28;20396;-82
2021/04/26 04:07:43;;;;;;;4.40;3.10;;;5.80;99.90;;;;;;5119038;28;20450;-83
2021/04/26 04:10:12;;;;;;;5.40;2.97;;;5.80;99.90;;;;;;5118534;28;20791;-82
2021/04/26 04:12:38;;;;;;;5.40;2.90;;;5.70;99.90;;;;;;5119283;28;20163;-81
2021/04/26 04:15:05;;;;;;;8.17;3.10;;;5.70;99.90;;;;;;5118970;28;20478;-82
2021/04/26 04:17:31;;;;;;;5.07;2.70;;;5.60;99.90;;;;;;5118707;28;20388;-83
2021/04/26 04:19:57;;;;;;;2.90;2.70;;;5.50;99.90;;;;;;5118976;28;20979;-83
2021/04/26 04:22:23;;;;;;;4.80;2.90;;;5.50;99.90;;;;;;5118645;28;20591;-83
2021/04/26 04:24:49;;;;;;;4.33;3.40;;;5.60;99.90;;;;;;5118837;28;20395;-82
2021/04/26 04:27:15;;;;;;;2.63;2.37;;;5.50;99.90;;;;;;5118681;28;20912;-83
2021/04/26 04:29:41;;;;;;;8.10;3.27;;;5.50;99.90;;;;;;5118925;28;20286;-82
2021/04/26 04:32:07;;;;;;;5.43;3.37;;;5.40;99.90;;;;;;5118747;28;20196;-82
2021/04/26 04:34:33;;;;;;;2.63;2.23;;;5.40;99.90;;;;;;5118790;28;20400;-82
2021/04/26 04:37:00;;;;;;;7.13;3.93;;;5.40;99.90;;;;;;5118597;28;20446;-82
2021/04/26 04:39:25;;;;;;;9.93;4.07;;;5.40;99.90;;;;;;5118614;28;20423;-82
2021/04/26 04:41:51;;;;;;;6.77;2.73;;;5.40;99.90;;;;;;5118132;28;20936;-82
2021/04/26 04:44:17;;;;;;;4.77;3.37;;;5.40;99.90;;;;;;5118509;28;20205;-82
2021/04/26 04:46:43;;;;;;;3.03;2.80;;;5.30;99.90;;;;;;5117936;28;20243;-82
2021/04/26 04:49:09;;;;;;;3.67;2.90;;;5.50;99.90;;;;;;5118140;28;20242;-82
2021/04/26 04:51:35;;;;;;;5.13;3.90;;;5.40;99.90;;;;;;5118653;28;20163;-82
2021/04/26 04:54:02;;;;;;;4.13;3.10;;;5.50;99.90;;;;;;5118300;28;20190;-81
2021/04/26 04:56:28;;;;;;;4.03;3.40;;;5.50;99.90;;;;;;5100104;28;20403;-83
2021/04/26 04:58:54;;;;;;;6.00;3.17;;;5.60;99.90;;;;;;5100561;28;20419;-83
2021/04/26 05:01:20;;;;;;;3.20;2.90;;;5.60;99.90;;;;;;5099838;28;20367;-82
2021/04/26 05:03:46;;;;;;;3.00;2.70;;;5.60;99.90;;;;;;5100424;28;20603;-82
2021/04/26 05:06:11;;;;;;;7.03;3.50;;;5.60;99.90;;;;;;5100272;28;20162;-83
2021/04/26 05:08:37;;;;;;;6.43;2.97;;;5.70;99.90;;;;;;5118052;28;20268;-83
2021/04/26 05:11:03;;;;;;;3.73;3.03;;;5.80;99.90;;;;;;5118556;28;20507;-83
2021/04/26 05:13:29;;;;;;;3.87;2.67;;;5.80;99.90;;;;;;5118856;28;20165;-83
2021/04/26 05:15:55;;;;;;;3.23;2.93;;;5.80;99.90;;;;;;5102306;28;20842;-83
2021/04/26 05:18:21;;;;;;;8.27;3.00;;;5.80;99.90;;;;;;5121662;28;20158;-82
2021/04/26 05:20:47;;;;;;;7.23;4.30;;;5.80;99.90;;;;;;5121890;28;20407;-83
2021/04/26 05:23:13;;;;;;;3.93;3.60;;;5.90;99.90;;;;;;5107178;28;20396;-82
2021/04/26 05:25:39;;;;;;;7.87;2.50;;;6.00;99.90;;;;;;5123586;28;20231;-82
2021/04/26 05:28:06;;;;;;;7.37;3.30;;;6.00;99.90;;;;;;5122608;28;20297;-82
2021/04/26 05:30:32;;;;;;;7.33;3.83;;;6.10;99.90;;;;;;5121829;28;20814;-82
2021/04/26 05:32:59;;;;;;;5.17;3.20;;;6.00;99.90;;;;;;5122696;28;20396;-83
2021/04/26 05:35:25;;;;;;;3.40;3.10;;;6.10;99.90;;;;;;5121974;28;20394;-82
2021/04/26 05:37:51;;;;;;;5.07;3.80;;;6.20;99.90;;;;;;5104695;28;20404;-83
2021/04/26 05:40:17;;;;;;;22.93;4.13;;;6.10;99.90;;;;;;5104889;28;20396;-82
2021/04/26 05:42:43;;;;;;;6.13;3.90;;;6.10;99.90;;;;;;5104198;28;20463;-82
2021/04/26 05:45:10;;;;;;;7.37;4.23;;;6.30;99.90;;;;;;5107318;27;20176;-83
2021/04/26 05:47:36;;;;;;;5.40;4.30;;;6.30;99.90;;;;;;5161159;27;20475;-83
2021/04/26 05:50:02;;;;;;;6.63;3.80;;;6.40;99.90;;;;;;5164631;27;20410;-83
2021/04/26 05:52:28;;;;;;;3.10;2.80;;;6.40;99.90;;;;;;5145068;27;20773;-82
2021/04/26 05:54:54;;;;;;;3.30;2.90;;;6.40;99.90;;;;;;5145553;27;20390;-82
2021/04/26 05:57:20;;;;;;;4.63;3.77;;;6.50;99.90;;;;;;5127156;27;20169;-83
2021/04/26 05:59:46;;;;;;;4.50;3.37;;;6.60;99.90;;;;;;5143693;27;20222;-83
2021/04/26 06:02:11;;;;;;;10.43;4.50;;;6.60;99.90;;;;;;5129893;27;20251;-82
2021/04/26 06:04:37;;;;;;;3.60;3.30;;;6.60;99.90;;;;;;5139287;27;20165;-83
2021/04/26 06:07:03;;;;;;;8.00;3.43;;;6.50;99.90;;;;;;5143130;27;20201;-82
2021/04/26 06:09:29;;;;;;;10.93;3.03;;;6.70;99.90;;;;;;5144086;27;20180;-83
2021/04/26 06:11:54;;;;;;;8.93;3.70;;;6.80;99.90;;;;;;5172810;27;20165;-82
2021/04/26 06:14:20;;;;;;;5.70;3.73;;;6.80;99.90;;;;;;5145617;27;20278;-81
2021/04/26 06:16:46;;;;;;;9.87;4.80;;;6.90;99.90;;;;;;5142446;27;20185;-82
2021/04/26 06:19:12;;;;;;;6.43;3.80;;;6.80;99.90;;;;;;5130173;27;20470;-81
2021/04/26 06:21:38;;;;;;;9.13;3.60;;;6.90;99.90;;;;;;5143276;27;20177;-82
2021/04/26 06:24:05;;;;;;;7.10;3.67;;;6.90;99.90;;;;;;5141384;27;20181;-82
2021/04/26 06:26:31;;;;;;;6.60;4.07;;;7.10;99.90;;;;;;5092890;27;20357;-82
2021/04/26 06:28:57;;;;;;;3.90;3.23;;;7.10;99.90;;;;;;5119393;27;20407;-81
2021/04/26 06:31:23;;;;;;;7.23;4.40;;;7.30;99.90;;;;;;5122653;27;20489;-82
2021/04/26 06:33:48;;;;;;;7.13;3.37;;;7.40;99.90;;;;;;5140246;27;20169;-83
2021/04/26 06:36:14;;;;;;;4.97;3.80;;;7.40;99.90;;;;;;5110731;27;20182;-83
2021/04/26 06:38:40;;;;;;;7.00;3.40;;;7.50;99.90;;;;;;5136845;27;20176;-83
2021/04/26 06:41:06;;;;;;;5.03;3.80;;;7.60;99.90;;;;;;5098806;28;20252;-83
2021/04/26 06:43:31;;;;;;;4.90;2.90;;;7.50;99.90;;;;;;5130243;27;20165;-83
2021/04/26 06:45:57;;;;;;;3.77;3.30;;;7.50;99.90;;;;;;5136536;27;20203;-83
2021/04/26 06:48:36;;;;;;;3.70;3.40;;;7.50;99.90;;;;;;5132645;27;20209;-83
2021/04/26 06:51:02;;;;;;;4.23;3.73;;;7.60;99.90;;;;;;5101703;27;20181;-83
2021/04/26 06:53:28;;;;;;;4.27;3.93;;;7.70;99.90;;;;;;5130231;27;20439;-84
2021/04/26 06:55:54;;;;;;;4.80;2.80;;;7.70;99.90;;;;;;5129201;27;20185;-82
2021/04/26 06:58:20;;;;;;;7.67;3.67;;;7.90;99.90;;;;;;5109178;27;20189;-82
2021/04/26 07:00:45;;;;;;;2.50;2.30;;;8.00;99.90;;;;;;5115191;27;20919;-83
2021/04/26 07:03:11;;;;;;;4.13;3.37;;;8.10;99.90;;;;;;5138125;27;20181;-83
2021/04/26 07:05:37;;;;;;;5.70;3.40;;;8.10;99.90;;;;;;5102736;27;20239;-82
2021/04/26 07:08:03;;;;;;;3.50;3.20;;;8.30;99.90;;;;;;5077917;28;20219;-82
2021/04/26 07:10:29;;;;;;;1.67;1.57;;;8.30;99.90;;;;;;5076254;28;20191;-82
2021/04/26 07:12:55;;;;;;;2.33;1.77;;;8.20;99.90;;;;;;5057026;28;20434;-82
2021/04/26 07:15:21;;;;;;;9.13;2.00;;;8.10;99.70;;;;;;5071262;28;20402;-82
2021/04/26 07:17:46;;;;;;;1.30;1.20;;;8.10;99.90;;;;;;5074555;28;20740;-81
2021/04/26 07:20:14;;;;;;;1.17;1.07;;;8.00;93.60;;;;;;5056714;28;20172;-82
2021/04/26 07:22:40;;;;;;;1.30;1.20;;;7.90;91.30;;;;;;5075879;28;20758;-81
2021/04/26 07:25:07;;;;;;;2.73;1.43;;;8.10;92.90;;;;;;5076437;28;20433;-82
2021/04/26 07:27:33;;;;;;;2.60;1.30;;;8.20;93.70;;;;;;5049777;28;20462;-81
2021/04/26 07:29:59;;;;;;;1.40;1.30;;;8.40;93.10;;;;;;5072133;28;20471;-82
2021/04/26 07:32:27;;;;;;;2.70;1.70;;;8.50;93.90;;;;;;5077438;28;20413;-82
2021/04/26 07:34:53;;;;;;;2.70;1.90;;;8.40;90.00;;;;;;5077554;28;20513;-82
2021/04/26 07:37:19;;;;;;;4.13;2.53;;;8.00;90.00;;;;;;5085544;28;20445;-82
2021/04/26 07:39:45;;;;;;;1.80;1.70;;;8.30;92.80;;;;;;5103619;27;20798;-82
2021/04/26 07:42:11;;;;;;;1.70;1.60;;;8.50;94.60;;;;;;5120870;27;20470;-83
2021/04/26 07:44:38;;;;;;;1.87;1.77;;;8.40;91.70;;;;;;5127251;27;20435;-82
2021/04/26 07:47:04;;;;;;;1.50;1.40;;;8.30;91.80;;;;;;5149196;27;20453;-82
2021/04/26 07:49:30;;;;;;;3.77;2.00;;;8.30;90.10;;;;;;5153314;27;20501;-82
2021/04/26 07:51:56;;;;;;;1.60;1.50;;;8.10;88.00;;;;;;5130774;27;20435;-83
2021/04/26 07:54:22;;;;;;;1.67;1.27;;;8.40;90.20;;;;;;5126077;27;20426;-81
2021/04/26 07:56:48;;;;;;;2.17;1.63;;;8.30;88.30;;;;;;5110721;27;20180;-82
2021/04/26 07:59:14;;;;;;;2.63;2.17;;;8.70;88.70;;;;;;5138627;27;20169;-81
2021/04/26 08:01:40;;;;;;;5.33;2.80;;;8.90;88.80;;;;;;5143142;27;20405;-82
2021/04/26 08:04:06;;;;;;;3.07;1.57;;;8.70;85.00;;;;;;5108459;27;20173;-82
2021/04/26 08:06:32;;;;;;;2.87;1.77;;;8.80;89.40;;;;;;5142804;27;20200;-82
2021/04/26 08:08:58;;;;;;;2.10;1.60;;;9.00;91.10;;;;;;5121826;27;20447;-82
2021/04/26 08:11:24;;;;;;;1.83;1.63;;;9.10;91.50;;;;;;5141573;27;20212;-81
2021/04/26 08:13:49;;;;;;;1.67;1.57;;;9.10;91.30;;;;;;5134306;27;20508;-81
2021/04/26 08:16:15;;;;;;;2.60;1.87;;;9.10;88.70;;;;;;5148617;27;20265;-83
2021/04/26 08:18:41;;;;;;;1.47;1.37;;;9.00;87.00;;;;;;5127560;27;20161;-83
2021/04/26 08:21:07;;;;;;;1.43;1.30;;;8.70;80.90;;;;;;5120836;27;20542;-83
2021/04/26 08:23:35;;;;;;;1.60;1.50;;;8.70;86.80;;;;;;5140510;27;20180;-83
2021/04/26 08:26:02;;;;;;;2.60;2.07;;;9.10;88.70;;;;;;5133178;27;20172;-83
2021/04/26 08:28:31;;;;;;;1.63;1.50;;;9.20;88.30;;;;;;5155075;27;20419;-83
2021/04/26 08:30:57;;;;;;;1.63;1.53;;;9.40;87.10;;;;;;5149317;27;20411;-84
2021/04/26 08:33:23;;;;;;;1.73;1.40;;;9.50;89.40;;;;;;5136165;27;20883;-84
2021/04/26 08:35:48;;;;;;;2.10;1.73;;;9.40;89.50;;;;;;5138990;27;20200;-83
2021/04/26 08:38:14;;;;;;;2.50;1.63;;;9.60;91.90;;;;;;5156160;27;20184;-84
2021/04/26 08:40:40;;;;;;;3.70;1.80;;;9.60;89.50;;;;;;5113442;27;20191;-83
2021/04/26 08:43:09;;;;;;;1.37;1.27;;;9.20;86.10;;;;;;5111002;28;20447;-84
2021/04/26 08:45:35;;;;;;;4.20;1.70;;;9.20;86.70;;;;;;5113845;28;20174;-81
2021/04/26 08:48:02;;;;;;;1.83;1.33;;;9.00;85.00;;;;;;5068297;28;20611;-81
2021/04/26 08:50:29;;;;;;;1.40;1.23;;;9.20;85.90;;;;;;5106592;28;20230;-82
2021/04/26 08:52:55;;;;;;;2.10;1.50;;;9.40;87.20;;;;;;5113129;28;20477;-82
2021/04/26 08:55:21;;;;;;;1.40;1.30;;;9.40;85.80;;;;;;5136013;27;20479;-81
2021/04/26 08:57:48;;;;;;;2.40;1.50;;;9.50;88.70;;;;;;5129389;27;20654;-80
2021/04/26 09:00:18;;;;;;;1.50;1.40;;;9.70;83.60;;;;;;5095828;28;20820;-81
2021/04/26 09:02:59;;;;;;;2.07;1.57;;;9.20;82.90;;;;;;5090413;28;20507;-82
2021/04/26 09:05:33;;;;;;;2.40;2.03;;;9.40;81.90;;;;;;5108053;28;20428;-80
2021/04/26 09:08:00;;;;;;;1.83;1.73;;;10.00;89.30;;;;;;5128497;28;20549;-80
2021/04/26 09:10:42;;;;;;;2.40;1.73;;;10.10;83.50;;;;;;5143412;28;20387;-82
2021/04/26 09:13:22;;;;;;;1.50;1.40;;;10.20;85.20;;;;;;5141217;28;20476;-81
2021/04/26 09:15:52;;;;;;;1.40;1.30;;;10.40;84.50;;;;;;5132140;28;20832;-80
2021/04/26 09:18:18;;;;;;;2.20;1.80;;;10.20;82.30;;;;;;5080939;28;20421;-83
2021/04/26 09:20:44;;;;;;;2.43;1.87;;;10.00;81.80;;;;;;5118222;28;20427;-83
2021/04/26 09:23:14;;;;;;;2.13;1.40;;;10.50;83.80;;;;;;5109798;28;20549;-82
2021/04/26 09:25:42;;;;;;;2.20;1.60;;;10.70;80.10;;;;;;5107026;28;20174;-83
2021/04/26 09:28:21;;;;;;;1.40;1.30;;;10.80;80.30;;;;;;5098755;28;20776;-83
2021/04/26 09:30:52;;;;;;;3.23;1.90;;;11.00;77.60;;;;;;5109639;28;20431;-83
2021/04/26 09:33:29;;;;;;;1.40;1.30;;;11.30;77.80;;;;;;5087702;28;20424;-83
2021/04/26 09:36:17;;;;;;;2.00;1.90;;;11.40;77.20;;;;;;5124228;28;20430;-83
2021/04/26 09:38:47;;;;;;;3.17;2.23;;;11.10;75.80;;;;;;5111879;28;20458;-84
2021/04/26 09:41:26;;;;;;;2.63;1.80;;;10.60;72.40;;;;;;5123721;28;20451;-85
2021/04/26 09:44:08;;;;;;;1.70;1.50;;;11.10;77.40;;;;;;5134685;28;20560;-84
2021/04/26 09:46:39;;;;;;;1.60;1.37;;;11.50;82.30;;;;;;5102638;28;20456;-84
2021/04/26 09:49:26;;;;;;;2.60;1.73;;;11.50;75.10;;;;;;5089406;28;20417;-83
2021/04/26 09:51:56;;;;;;;2.20;1.60;;;11.50;74.30;;;;;;5116471;28;20503;-84
2021/04/26 09:54:36;;;;;;;3.57;1.90;;;11.10;74.90;;;;;;5123822;28;20423;-83
2021/04/26 09:57:02;;;;;;;2.80;1.63;;;11.30;70.80;;;;;;5104055;28;20758;-82
2021/04/26 09:59:29;;;;;;;2.30;1.70;;;11.50;69.80;;;;;;5105587;28;20768;-84
2021/04/26 10:01:56;;;;;;;2.33;1.60;;;11.30;70.50;;;;;;5125771;28;20420;-84
2021/04/26 10:04:24;;;;;;;2.60;1.90;;;11.20;67.50;;;;;;5121739;28;20419;-83
2021/04/26 10:06:50;;;;;;;1.93;1.73;;;11.50;69.80;;;;;;5130809;28;20459;-84
2021/04/26 10:09:19;;;;;;;1.40;1.30;;;11.90;70.00;;;;;;5085341;27;20435;-84
2021/04/26 10:11:45;;;;;;;2.20;1.50;;;12.00;69.30;;;;;;5144326;27;20837;-84
2021/04/26 10:14:15;;;;;;;1.50;1.40;;;12.50;71.00;;;;;;5128215;27;20937;-81
2021/04/26 10:17:04;;;;;;;2.80;1.87;;;12.70;73.00;;;;;;5113365;28;20424;-84
2021/04/26 10:19:35;;;;;;;2.70;1.67;;;12.20;63.10;;;;;;5079853;28;20450;-83
2021/04/26 10:22:03;;;;;;;1.80;1.63;;;11.50;65.40;;;;;;5084124;28;20442;-84
2021/04/26 10:24:31;;;;;;;2.40;1.67;;;11.70;66.30;;;;;;5097880;28;20439;-84
2021/04/26 10:27:01;;;;;;;2.40;2.00;;;12.20;66.50;;;;;;5144745;27;20462;-83
2021/04/26 10:29:58;;;;;;;2.27;1.40;;;11.80;62.10;;;;;;5073144;28;20421;-82
2021/04/26 10:32:25;;;;;;;1.53;1.43;;;12.00;62.40;;;;;;5127811;27;20414;-82
2021/04/26 10:35:12;;;;;;;2.30;1.70;;;12.20;60.00;;;;;;5085378;28;20404;-84
2021/04/26 10:37:38;;;;;;;4.53;2.53;;;12.50;64.90;;;;;;5124564;27;20499;-84
2021/04/26 10:40:10;;;;;;;2.50;1.77;;;13.00;65.50;;;;;;5103701;28;20431;-84
2021/04/26 10:42:46;;;;;;;1.90;1.77;;;13.00;64.00;;;;;;5123904;27;20490;-84
2021/04/26 10:45:23;;;;;;;3.67;2.70;;;13.10;60.00;;;;;;5087227;28;20412;-83
2021/04/26 10:48:09;;;;;;;1.60;1.40;;;13.20;59.20;;;;;;5087212;28;20492;-83
2021/04/26 10:50:43;;;;;;;1.60;1.50;;;13.40;58.20;;;;;;5106312;27;20415;-85
2021/04/26 10:53:11;;;;;;;1.50;1.40;;;13.30;59.20;;;;;;5092841;28;20507;-84
2021/04/26 10:55:39;;;;;;;1.77;1.50;;;13.20;55.90;;;;;;5097248;27;20420;-84
2021/04/26 10:58:21;;;;;;;2.07;1.70;;;13.50;56.70;;;;;;5140479;27;20483;-84
2021/04/26 11:00:50;;;;;;;10.90;3.13;;;13.80;54.90;;;;;;5132636;27;20414;-85
2021/04/26 11:03:38;;;;;;;1.57;1.47;;;14.30;57.00;;;;;;5080938;28;20518;-85
2021/04/26 11:06:13;;;;;;;3.93;2.27;;;14.70;57.00;;;;;;5119194;27;20452;-84
2021/04/26 11:08:45;;;;;;;6.60;1.87;;;14.60;58.80;;;;;;5086712;27;20443;-83
2021/04/26 11:11:30;;;;;;;3.37;2.80;;;15.30;58.00;;;;;;5098134;28;20538;-87
2021/04/26 11:13:58;;;;;;;1.60;1.50;;;15.20;55.00;;;;;;5101694;27;20422;-82
2021/04/26 11:16:32;;;;;;;1.73;1.63;;;15.80;55.50;;;;;;5126823;27;20418;-82
2021/04/26 11:19:11;;;;;;;1.67;1.57;;;16.10;53.10;;;;;;5115007;27;20407;-84
2021/04/26 11:21:52;;;;;;;1.70;1.60;;;16.20;49.80;;;;;;5100517;27;20416;-84
2021/04/26 11:24:47;;;;;;;1.30;1.20;;;16.20;48.60;;;;;;5116167;27;20415;-84
2021/04/26 11:27:18;;;;;;;2.63;2.00;;;16.00;49.30;;;;;;5117244;27;20446;-85
2021/04/26 11:30:12;;;;;;;3.80;2.30;;;17.00;51.60;;;;;;5106397;28;20415;-84
2021/04/26 11:33:02;;;;;;;4.60;1.80;;;18.00;47.80;;;;;;5091564;28;20450;-85
2021/04/26 11:35:36;;;;;;;2.00;1.80;;;16.40;46.70;;;;;;5088186;28;20388;-85
2021/04/26 11:38:03;;;;;;;2.73;1.87;;;16.80;47.10;;;;;;5066629;28;20498;-84
2021/04/26 11:40:33;;;;;;;2.97;2.43;;;16.90;47.60;;;;;;5065416;28;20899;-84
2021/04/26 11:43:12;;;;;;;2.23;1.80;;;17.80;47.90;;;;;;5030844;28;20417;-83
2021/04/26 11:45:38;;;;;;;2.77;1.70;;;16.80;46.10;;;;;;5064694;28;20385;-84
2021/04/26 11:48:05;;;;;;;1.30;1.20;;;15.40;45.30;;;;;;5079368;28;20465;-84
2021/04/26 11:50:31;;;;;;;2.03;1.83;;;16.00;45.00;;;;;;5083252;28;20417;-84
2021/04/26 11:56:09;;;;;;;1.73;1.40;;;18.10;45.50;;;;;;5006546;28;20189;-84
2021/04/26 11:58:35;;;;;;;1.63;1.33;;;19.10;43.40;;;;;;4989635;28;20400;-84
2021/04/26 12:01:06;;;;;;;2.90;1.40;;;19.80;43.40;;;;;;4988505;28;20505;-85
2021/04/26 12:03:32;;;;;;;1.60;1.50;;;20.30;42.60;;;;;;4961143;29;20554;-83
2021/04/26 12:06:01;;;;;;;2.00;1.80;;;20.60;42.40;;;;;;4928794;29;20506;-83
2021/04/26 12:08:43;;;;;;;1.90;1.73;;;20.70;42.20;;;;;;4964988;28;20445;-83
2021/04/26 12:11:18;;;;;;;1.40;1.30;;;18.50;40.40;;;;;;4978865;28;20508;-82
2021/04/26 12:13:45;;;;;;;1.70;1.60;;;18.70;43.80;;;;;;4978948;28;20417;-83
2021/04/26 12:16:25;;;;;;;2.30;1.63;;;18.80;43.40;;;;;;4978533;28;20515;-85
2021/04/26 12:19:01;;;;;;;5.00;1.63;;;17.10;39.80;;;;;;4978685;28;20832;-83
2021/04/26 12:21:27;;;;;;;1.70;1.40;;;16.00;41.60;;;;;;4978476;28;20410;-83
2021/04/26 12:23:53;;;;;;;1.70;1.30;;;18.40;42.70;;;;;;4979034;28;20978;-83
2021/04/26 12:26:19;;;;;;;1.97;1.67;;;18.50;43.10;;;;;;5013031;28;20489;-83
2021/04/26 12:28:48;;;;;;;2.07;1.60;;;20.30;40.90;;;;;;5057266;28;20501;-83
2021/04/26 12:31:24;;;;;;;2.13;1.60;;;18.40;39.00;;;;;;5056582;28;20433;-83
2021/04/26 12:33:50;;;;;;;2.43;1.90;;;17.50;39.00;;;;;;5071342;28;20884;-83
2021/04/26 12:36:17;;;;;;;2.33;1.60;;;16.30;39.50;;;;;;5119884;28;20420;-83
2021/04/26 12:38:53;;;;;;;1.97;1.50;;;15.70;40.50;;;;;;5084803;28;20384;-83
2021/04/26 12:41:19;;;;;;;3.57;1.80;;;16.10;39.90;;;;;;5102225;28;20447;-83
2021/04/26 12:43:52;;;;;;;1.97;1.53;;;16.60;39.60;;;;;;5120465;28;20395;-83
2021/04/26 12:46:21;;;;;;;1.83;1.50;;;18.10;39.40;;;;;;5119218;28;20404;-83
2021/04/26 12:48:47;;;;;;;7.13;1.70;;;18.10;37.50;;;;;;5101693;28;20400;-84
2021/04/26 12:51:27;;;;;;;2.83;1.60;;;16.70;37.60;;;;;;5102993;28;20422;-82
2021/04/26 12:54:06;;;;;;;2.67;2.07;;;17.10;37.40;;;;;;5119930;28;20403;-83
2021/04/26 12:56:32;;;;;;;5.67;1.87;;;17.10;39.80;;;;;;5114384;28;21195;-82
2021/04/26 12:58:57;;;;;;;2.07;1.80;;;16.20;38.60;;;;;;5083915;28;20416;-84
2021/04/26 13:01:25;;;;;;;1.90;1.80;;;17.00;40.00;;;;;;5100585;28;20198;-82
2021/04/26 13:03:55;;;;;;;1.90;1.80;;;18.10;41.70;;;;;;5080810;28;20150;-82